createdAt,value
2024-04-16T00:01:28.349Z,8.48
2024-04-16T00:03:57.916Z,8.49
2024-04-16T00:06:24.903Z,8.49
2024-04-16T00:08:54.334Z,8.47
2024-04-16T00:11:21.674Z,8.36
2024-04-16T00:13:51.199Z,8.41
2024-04-16T00:16:18.015Z,8.45
2024-04-16T00:18:47.788Z,8.50
2024-04-16T00:21:14.612Z,8.38
2024-04-16T00:23:43.952Z,8.48
2024-04-16T00:26:10.664Z,8.43
2024-04-16T00:28:40.054Z,8.38
2024-04-16T00:31:06.860Z,8.36
2024-04-16T00:33:36.170Z,8.46
2024-04-16T00:36:03.091Z,8.43
2024-04-16T00:38:32.393Z,8.49
2024-04-16T00:40:59.068Z,8.55
2024-04-16T00:43:28.602Z,8.46
2024-04-16T00:45:56.721Z,8.39
2024-04-16T00:48:31.080Z,8.42
2024-04-16T00:50:59.291Z,8.36
2024-04-16T00:53:31.153Z,8.32
2024-04-16T00:55:58.397Z,8.33
2024-04-16T00:58:29.851Z,8.27
2024-04-16T01:00:56.650Z,8.16
2024-04-16T01:03:26.033Z,8.05
2024-04-16T01:05:53.070Z,7.99
2024-04-16T01:08:22.408Z,7.85
2024-04-16T01:10:49.152Z,7.84
2024-04-16T01:13:18.521Z,7.98
2024-04-16T01:15:45.202Z,7.98
2024-04-16T01:18:15.358Z,7.96
2024-04-16T01:20:42.260Z,7.98
2024-04-16T01:23:11.648Z,8.05
2024-04-16T01:25:38.463Z,8.07
2024-04-16T01:28:08.139Z,7.93
2024-04-16T01:30:34.835Z,7.85
2024-04-16T01:33:04.175Z,7.97
2024-04-16T01:35:30.869Z,7.93
2024-04-16T01:38:00.142Z,7.72
2024-04-16T01:40:26.872Z,7.17
2024-04-16T01:42:56.294Z,6.87
2024-04-16T01:45:22.992Z,6.91
2024-04-16T01:47:52.391Z,6.77
2024-04-16T01:50:19.558Z,6.64
2024-04-16T01:52:48.970Z,6.65
2024-04-16T01:55:15.689Z,6.73
2024-04-16T01:57:44.996Z,6.63
2024-04-16T02:00:12.086Z,6.63
2024-04-16T02:02:41.837Z,6.71
2024-04-16T02:05:08.951Z,6.68
2024-04-16T02:07:38.340Z,6.65
2024-04-16T02:10:07.198Z,6.67
2024-04-16T02:12:36.490Z,6.66
2024-04-16T02:15:03.211Z,6.70
2024-04-16T02:17:32.603Z,6.52
2024-04-16T02:19:59.319Z,6.59
2024-04-16T02:22:28.600Z,6.48
2024-04-16T02:24:55.296Z,6.45
2024-04-16T02:27:24.567Z,6.46
2024-04-16T02:29:51.252Z,6.43
2024-04-16T02:32:20.654Z,6.38
2024-04-16T02:34:49.827Z,6.23
2024-04-16T02:37:19.138Z,6.27
2024-04-16T02:39:45.806Z,6.29
2024-04-16T02:42:15.072Z,6.28
2024-04-16T02:44:41.784Z,6.37
2024-04-16T02:47:11.059Z,6.26
2024-04-16T02:49:37.769Z,6.31
2024-04-16T02:52:07.362Z,6.43
2024-04-16T02:54:34.040Z,6.46
2024-04-16T02:57:03.359Z,6.37
2024-04-16T02:59:30.036Z,6.40
2024-04-16T03:01:59.392Z,6.55
2024-04-16T03:04:26.145Z,6.61
2024-04-16T03:06:55.416Z,6.72
2024-04-16T03:09:23.988Z,6.76
2024-04-16T03:11:53.576Z,6.79
2024-04-16T03:14:20.241Z,6.72
2024-04-16T03:16:49.561Z,6.83
2024-04-16T03:19:16.595Z,6.81
2024-04-16T03:21:45.914Z,6.75
2024-04-16T03:24:12.627Z,6.69
2024-04-16T03:26:41.930Z,6.67
2024-04-16T03:29:08.673Z,6.59
2024-04-16T03:31:38.027Z,6.64
2024-04-16T03:34:04.791Z,6.52
2024-04-16T03:36:34.157Z,6.57
2024-04-16T03:39:03.442Z,6.59
2024-04-16T03:41:32.753Z,6.68
2024-04-16T03:44:02.022Z,6.70
2024-04-16T03:46:29.006Z,6.73
2024-04-16T03:48:58.355Z,6.82
2024-04-16T03:51:25.041Z,6.79
2024-04-16T03:53:54.296Z,6.86
2024-04-16T03:56:20.996Z,6.96
2024-04-16T03:59:16.266Z,6.97
2024-04-16T04:01:44.196Z,7.02
2024-04-16T04:04:13.754Z,7.05
2024-04-16T04:06:40.564Z,7.00
2024-04-16T04:09:09.941Z,6.96
2024-04-16T04:11:39.215Z,6.85
2024-04-16T04:14:05.904Z,7.02
2024-04-16T04:16:35.295Z,6.84
2024-04-16T04:19:02.060Z,6.81
2024-04-16T04:21:31.666Z,6.77
2024-04-16T04:23:58.335Z,6.74
2024-04-16T04:26:27.679Z,6.85
2024-04-16T04:28:56.550Z,6.92
2024-04-16T04:31:25.846Z,6.86
2024-04-16T04:33:52.542Z,6.79
2024-04-16T04:36:22.016Z,6.78
2024-04-16T04:38:48.781Z,6.87
2024-04-16T04:41:18.421Z,6.83
2024-04-16T04:43:45.099Z,6.86
2024-04-16T04:46:14.937Z,6.67
2024-04-16T04:48:41.686Z,6.71
2024-04-16T04:51:11.208Z,6.77
2024-04-16T04:53:40.908Z,6.76
2024-04-16T04:56:10.598Z,6.93
2024-04-16T04:58:37.454Z,6.93
2024-04-16T05:01:07.338Z,7.06
2024-04-16T05:03:34.179Z,7.03
2024-04-16T05:06:03.506Z,7.09
2024-04-16T05:08:30.256Z,7.18
2024-04-16T05:11:00.674Z,7.27
2024-04-16T05:13:27.549Z,7.33
2024-04-16T05:15:56.904Z,7.31
2024-04-16T05:18:23.969Z,7.46
2024-04-16T05:20:53.390Z,7.54
2024-04-16T05:23:20.126Z,7.57
2024-04-16T05:25:58.866Z,7.68
2024-04-16T05:28:25.673Z,7.79
2024-04-16T05:30:55.002Z,7.95
2024-04-16T05:33:21.745Z,7.91
2024-04-16T05:35:51.049Z,8.03
2024-04-16T05:38:17.738Z,8.00
2024-04-16T05:40:47.094Z,8.11
2024-04-16T05:43:13.812Z,8.17
2024-04-16T05:45:44.068Z,8.33
2024-04-16T05:48:10.819Z,8.46
2024-04-16T05:50:40.218Z,8.45
2024-04-16T05:53:07.374Z,8.46
2024-04-16T05:55:36.760Z,8.54
2024-04-16T05:58:03.782Z,8.62
2024-04-16T06:00:33.158Z,8.72
2024-04-16T06:02:59.910Z,8.69
2024-04-16T06:05:29.975Z,8.64
2024-04-16T06:07:59.585Z,8.86
2024-04-16T06:10:29.015Z,8.96
2024-04-16T06:12:55.749Z,8.97
2024-04-16T06:15:25.081Z,8.90
2024-04-16T06:17:51.937Z,9.04
2024-04-16T06:20:21.339Z,9.04
2024-04-16T06:22:49.189Z,9.08
2024-04-16T06:25:19.397Z,9.11
2024-04-16T06:27:48.581Z,9.32
2024-04-16T06:30:17.962Z,9.23
2024-04-16T06:32:44.715Z,9.38
2024-04-16T06:35:14.446Z,9.46
2024-04-16T06:37:41.697Z,9.47
2024-04-16T06:40:11.596Z,9.32
2024-04-16T06:42:38.559Z,9.39
2024-04-16T06:45:08.494Z,9.34
2024-04-16T06:47:35.627Z,9.16
2024-04-16T06:50:06.311Z,8.95
2024-04-16T06:52:33.138Z,8.98
2024-04-16T06:55:02.805Z,9.07
2024-04-16T06:57:29.491Z,9.18
2024-04-16T06:59:59.144Z,9.08
2024-04-16T07:02:26.291Z,8.89
2024-04-16T07:04:55.603Z,9.00
2024-04-16T07:07:24.983Z,9.04
2024-04-16T07:09:51.698Z,8.94
2024-04-16T07:12:21.017Z,9.03
2024-04-16T07:14:50.297Z,9.07
2024-04-16T07:17:17.001Z,9.21
2024-04-16T07:19:46.379Z,9.29
2024-04-16T07:22:13.148Z,9.25
2024-04-16T07:24:42.603Z,9.37
2024-04-16T07:27:09.357Z,9.34
2024-04-16T07:29:41.217Z,9.56
2024-04-16T07:32:08.094Z,9.44
2024-04-16T07:34:37.891Z,9.65
2024-04-16T07:37:04.802Z,9.52
2024-04-16T07:39:34.265Z,9.68
2024-04-16T07:42:00.989Z,9.60
2024-04-16T07:44:30.326Z,9.84
2024-04-16T07:46:57.179Z,9.69
2024-04-16T07:49:26.607Z,9.78
2024-04-16T07:51:53.295Z,9.72
2024-04-16T07:54:22.613Z,9.65
2024-04-16T07:56:49.876Z,9.72
2024-04-16T07:59:19.388Z,9.62
2024-04-16T08:01:46.227Z,9.63
2024-04-16T08:04:15.761Z,9.48
2024-04-16T08:06:42.567Z,9.52
2024-04-16T08:09:12.413Z,9.56
2024-04-16T08:11:39.213Z,9.45
2024-04-16T08:14:09.617Z,9.33
2024-04-16T08:16:36.575Z,9.25
2024-04-16T08:19:06.029Z,9.13
2024-04-16T08:21:32.799Z,8.95
2024-04-16T08:24:02.417Z,8.97
2024-04-16T08:26:29.090Z,8.85
2024-04-16T08:28:58.430Z,8.68
2024-04-16T08:31:26.758Z,8.84
2024-04-16T08:33:57.128Z,9.03
2024-04-16T08:36:23.917Z,9.09
2024-04-16T08:38:53.358Z,9.49
2024-04-16T08:41:20.213Z,9.87
2024-04-16T08:43:52.302Z,9.72
2024-04-16T08:46:20.310Z,9.94
2024-04-16T08:48:50.654Z,10.15
2024-04-16T08:51:18.852Z,10.25
2024-04-16T08:53:50.883Z,10.42
2024-04-16T08:56:18.816Z,10.31
2024-04-16T08:58:48.193Z,10.91
2024-04-16T09:01:20.595Z,10.90
2024-04-16T09:03:51.139Z,10.91
2024-04-16T09:06:21.151Z,11.01
2024-04-16T09:09:00.846Z,11.54
2024-04-16T09:11:35.639Z,11.06
2024-04-16T09:14:02.320Z,10.98
2024-04-16T09:16:33.430Z,11.32
2024-04-16T09:19:11.491Z,11.41
2024-04-16T09:21:41.865Z,11.66
2024-04-16T09:24:09.574Z,11.59
2024-04-16T09:26:39.717Z,12.21
2024-04-16T09:29:06.946Z,12.18
2024-04-16T09:31:36.308Z,12.37
2024-04-16T09:34:09.184Z,12.00
2024-04-16T09:36:39.076Z,11.81
2024-04-16T09:39:05.802Z,12.02
2024-04-16T09:41:35.181Z,11.77
2024-04-16T09:44:03.368Z,11.74
2024-04-16T09:46:33.778Z,12.00
2024-04-16T09:49:00.723Z,12.44
2024-04-16T09:51:30.547Z,12.81
2024-04-16T09:53:59.128Z,12.50
2024-04-16T09:56:34.415Z,12.45
2024-04-16T09:59:02.491Z,12.75
2024-04-16T10:01:32.823Z,12.86
2024-04-16T10:03:59.659Z,12.25
2024-04-16T10:06:29.219Z,12.17
2024-04-16T10:08:56.572Z,12.03
2024-04-16T10:11:31.678Z,12.85
2024-04-16T10:13:59.820Z,13.17
2024-04-16T10:16:30.440Z,13.37
2024-04-16T10:18:58.211Z,12.99
2024-04-16T10:21:29.553Z,13.51
2024-04-16T10:24:00.981Z,13.59
2024-04-16T10:26:30.560Z,13.26
2024-04-16T10:28:58.044Z,13.23
2024-04-16T10:31:35.538Z,13.81
2024-04-16T10:34:02.642Z,13.34
2024-04-16T10:36:32.414Z,13.39
2024-04-16T10:38:59.316Z,12.74
2024-04-16T10:41:30.162Z,12.68
2024-04-16T10:43:57.992Z,12.65
2024-04-16T10:46:27.961Z,13.02
2024-04-16T10:48:56.849Z,13.08
2024-04-16T10:51:26.186Z,12.78
2024-04-16T10:53:52.862Z,12.41
2024-04-16T10:56:22.307Z,12.51
2024-04-16T10:58:50.100Z,12.47
2024-04-16T11:01:19.585Z,12.33
2024-04-16T11:03:46.419Z,12.99
2024-04-16T11:06:15.709Z,13.39
2024-04-16T11:08:42.423Z,13.35
2024-04-16T11:11:14.976Z,13.21
2024-04-16T11:13:41.977Z,13.07
2024-04-16T11:16:12.494Z,13.33
2024-04-16T11:18:39.538Z,13.42
2024-04-16T11:21:08.923Z,13.61
2024-04-16T11:23:35.663Z,13.38
2024-04-16T11:26:05.234Z,13.51
2024-04-16T11:28:31.967Z,13.91
2024-04-16T11:31:02.755Z,14.19
2024-04-16T11:33:36.525Z,14.01
2024-04-16T11:36:13.656Z,13.93
2024-04-16T11:38:41.961Z,13.66
2024-04-16T11:41:13.745Z,14.05
2024-04-16T11:43:42.972Z,13.78
2024-04-16T11:46:16.058Z,13.55
2024-04-16T11:48:43.857Z,13.50
2024-04-16T11:51:14.216Z,13.72
2024-04-16T11:53:41.667Z,14.24
2024-04-16T11:56:13.332Z,15.20
2024-04-16T11:58:43.515Z,14.94
2024-04-16T12:01:14.419Z,14.61
2024-04-16T12:03:41.358Z,14.54
2024-04-16T12:06:10.835Z,14.07
2024-04-16T12:08:37.564Z,14.02
2024-04-16T12:11:07.307Z,14.21
2024-04-16T12:13:34.268Z,14.13
2024-04-16T12:16:04.232Z,14.19
2024-04-16T12:18:33.565Z,14.69
2024-04-16T12:21:00.366Z,14.32
2024-04-16T12:23:29.671Z,14.30
2024-04-16T12:25:56.553Z,14.39
2024-04-16T12:28:25.990Z,13.92
2024-04-16T12:30:55.607Z,13.69
2024-04-16T12:33:22.375Z,13.41
2024-04-16T12:35:51.776Z,13.50
2024-04-16T12:38:18.577Z,13.31
2024-04-16T12:40:48.028Z,13.14
2024-04-16T12:43:16.290Z,13.26
2024-04-16T12:45:45.667Z,13.08
2024-04-16T12:48:20.012Z,12.51
2024-04-16T12:50:50.261Z,12.36
2024-04-16T12:53:16.976Z,12.30
2024-04-16T12:55:46.344Z,12.37
2024-04-16T12:58:14.700Z,12.14
2024-04-16T13:00:44.186Z,12.56
2024-04-16T13:03:12.942Z,12.90
2024-04-16T13:05:42.269Z,12.94
2024-04-16T13:08:09.554Z,13.27
2024-04-16T13:10:39.625Z,13.37
2024-04-16T13:13:06.387Z,13.52
2024-04-16T13:15:36.014Z,13.84
2024-04-16T13:18:03.378Z,14.12
2024-04-16T13:20:32.812Z,13.42
2024-04-16T13:22:59.737Z,12.87
2024-04-16T13:25:29.078Z,12.40
2024-04-16T13:27:55.775Z,12.48
2024-04-16T13:30:25.075Z,12.27
2024-04-16T13:32:57.255Z,11.85
2024-04-16T13:35:27.372Z,11.75
2024-04-16T13:37:54.378Z,11.74
2024-04-16T13:40:26.065Z,11.66
2024-04-16T13:42:53.004Z,11.68
2024-04-16T13:45:22.332Z,11.43
2024-04-16T13:47:49.077Z,11.60
2024-04-16T13:50:18.590Z,11.43
2024-04-16T13:52:48.798Z,11.71
2024-04-16T13:55:18.543Z,11.78
2024-04-16T13:57:45.400Z,11.72
2024-04-16T14:00:15.878Z,11.58
2024-04-16T14:02:42.785Z,11.69
2024-04-16T14:05:12.135Z,11.93
2024-04-16T14:07:38.966Z,11.89
2024-04-16T14:10:08.510Z,12.19
2024-04-16T14:12:35.316Z,12.11
2024-04-16T14:15:04.743Z,12.49
2024-04-16T14:17:31.525Z,12.66
2024-04-16T14:20:01.315Z,12.91
2024-04-16T14:22:28.127Z,12.85
2024-04-16T14:24:57.660Z,12.81
2024-04-16T14:27:25.338Z,12.61
2024-04-16T14:29:54.797Z,12.65
2024-04-16T14:32:21.679Z,12.61
2024-04-16T14:34:51.172Z,12.31
2024-04-16T14:37:17.890Z,12.43
2024-04-16T14:39:47.541Z,11.96
2024-04-16T14:42:14.245Z,12.12
2024-04-16T14:44:43.600Z,12.27
2024-04-16T14:47:10.387Z,11.94
2024-04-16T14:49:39.828Z,11.73
2024-04-16T14:52:09.604Z,11.82
2024-04-16T14:54:39.878Z,11.72
2024-04-16T14:57:06.674Z,11.63
2024-04-16T14:59:35.940Z,11.54
2024-04-16T15:02:02.888Z,11.61
2024-04-16T15:04:33.388Z,11.76
2024-04-16T15:07:00.890Z,11.58
2024-04-16T15:09:30.566Z,11.27
2024-04-16T15:11:57.286Z,11.28
2024-04-16T15:14:26.679Z,10.96
2024-04-16T15:16:54.628Z,10.77
2024-04-16T15:19:24.036Z,10.49
2024-04-16T15:21:50.837Z,10.60
2024-04-16T15:24:20.187Z,10.82
2024-04-16T15:26:46.948Z,10.54
2024-04-16T15:29:16.274Z,10.30
2024-04-16T15:31:43.088Z,10.54
2024-04-16T15:34:12.420Z,10.54
2024-04-16T15:36:39.099Z,10.67
2024-04-16T15:39:08.594Z,10.71
2024-04-16T15:41:35.352Z,10.77
2024-04-16T15:44:04.723Z,10.86
2024-04-16T15:46:31.580Z,10.76
2024-04-16T15:49:00.943Z,10.71
2024-04-16T15:51:27.658Z,10.52
2024-04-16T15:53:57.002Z,10.76
2024-04-16T15:56:23.925Z,10.88
2024-04-16T15:58:53.343Z,10.88
2024-04-16T16:01:20.130Z,10.74
2024-04-16T16:03:50.984Z,11.03
2024-04-16T16:06:17.761Z,10.90
2024-04-16T16:08:48.457Z,11.02
2024-04-16T16:11:15.219Z,10.87
2024-04-16T16:13:44.806Z,10.90
2024-04-16T16:16:12.511Z,11.04
2024-04-16T16:18:42.252Z,10.65
2024-04-16T16:21:10.036Z,10.66
2024-04-16T16:23:39.692Z,10.76
2024-04-16T16:26:09.410Z,10.67
2024-04-16T16:28:39.323Z,10.60
2024-04-16T16:31:06.058Z,10.78
2024-04-16T16:33:35.534Z,10.70
2024-04-16T16:36:02.232Z,10.94
2024-04-16T16:38:32.165Z,11.02
2024-04-16T16:40:59.052Z,10.97
2024-04-16T16:43:29.486Z,10.92
2024-04-16T16:45:56.225Z,10.66
2024-04-16T16:48:25.671Z,10.74
2024-04-16T16:50:53.508Z,10.84
2024-04-16T16:53:22.816Z,10.95
2024-04-16T16:55:52.937Z,10.88
2024-04-16T16:58:24.005Z,10.96
2024-04-16T17:00:50.780Z,11.03
2024-04-16T17:03:22.600Z,10.84
2024-04-16T17:05:49.370Z,10.77
2024-04-16T17:08:18.831Z,10.86
2024-04-16T17:10:46.970Z,10.76
2024-04-16T17:13:18.442Z,10.67
2024-04-16T17:15:45.299Z,10.72
2024-04-16T17:18:14.709Z,10.55
2024-04-16T17:20:41.421Z,10.67
2024-04-16T17:23:10.938Z,10.33
2024-04-16T17:25:37.743Z,10.30
2024-04-16T17:28:07.360Z,10.15
2024-04-16T17:30:34.071Z,10.27
2024-04-16T17:33:03.489Z,10.17
2024-04-16T17:35:30.265Z,10.17
2024-04-16T17:37:59.701Z,10.19
2024-04-16T17:40:27.348Z,10.31
2024-04-16T17:42:56.664Z,10.18
2024-04-16T17:45:23.354Z,10.31
2024-04-16T17:47:52.803Z,10.33
2024-04-16T17:50:19.559Z,10.29
2024-04-16T17:52:49.489Z,10.19
2024-04-16T17:55:16.304Z,10.29
2024-04-16T17:57:45.621Z,10.08
2024-04-16T18:00:15.541Z,10.20
2024-04-16T18:02:48.732Z,10.17
2024-04-16T18:05:15.576Z,10.27
2024-04-16T18:07:45.415Z,10.19
2024-04-16T18:10:12.318Z,10.09
2024-04-16T18:12:41.722Z,9.89
2024-04-16T18:15:10.063Z,9.89
2024-04-16T18:17:40.251Z,9.72
2024-04-16T18:20:07.503Z,9.73
2024-04-16T18:22:36.933Z,9.68
2024-04-16T18:25:03.828Z,9.74
2024-04-16T18:27:36.082Z,9.72
2024-04-16T18:30:03.201Z,9.62
2024-04-16T18:32:32.543Z,9.60
2024-04-16T18:34:59.273Z,9.48
2024-04-16T18:37:28.609Z,9.52
2024-04-16T18:39:55.307Z,9.43
2024-04-16T18:42:24.645Z,9.45
2024-04-16T18:44:51.714Z,9.32
2024-04-16T18:47:23.117Z,9.33
2024-04-16T18:49:50.109Z,9.16
2024-04-16T18:52:19.785Z,9.20
2024-04-16T18:54:46.728Z,9.05
2024-04-16T18:57:16.027Z,9.05
2024-04-16T18:59:44.152Z,9.00
2024-04-16T19:02:13.537Z,9.06
2024-04-16T19:04:40.799Z,9.00
2024-04-16T19:07:10.204Z,8.94
2024-04-16T19:09:36.888Z,8.86
2024-04-16T19:12:06.387Z,8.81
2024-04-16T19:14:33.049Z,8.76
2024-04-16T19:17:02.475Z,8.62
2024-04-16T19:19:30.194Z,8.65
2024-04-16T19:22:00.253Z,8.72
2024-04-16T19:24:27.544Z,8.63
2024-04-16T19:26:56.912Z,8.72
2024-04-16T19:29:23.617Z,8.64
2024-04-16T19:31:53.039Z,8.74
2024-04-16T19:34:19.780Z,8.70
2024-04-16T19:36:49.760Z,8.67
2024-04-16T19:39:16.415Z,8.62
2024-04-16T19:41:45.713Z,8.57
2024-04-16T19:44:12.407Z,8.65
2024-04-16T19:46:41.725Z,8.64
2024-04-16T19:49:08.846Z,8.64
2024-04-16T19:51:38.151Z,8.64
2024-04-16T19:54:05.072Z,8.54
2024-04-16T19:56:34.572Z,8.48
2024-04-16T19:59:03.031Z,8.49
2024-04-16T20:01:32.342Z,8.43
2024-04-16T20:03:59.686Z,8.44
2024-04-16T20:06:29.289Z,8.44
2024-04-16T20:08:56.081Z,8.36
2024-04-16T20:11:27.354Z,8.52
2024-04-16T20:13:56.737Z,8.34
2024-04-16T20:16:27.467Z,8.35
2024-04-16T20:18:55.898Z,8.39
2024-04-16T20:21:26.398Z,8.18
2024-04-16T20:23:53.497Z,8.22
2024-04-16T20:26:22.902Z,8.23
2024-04-16T20:28:50.016Z,8.26
2024-04-16T20:31:19.603Z,8.36
2024-04-16T20:33:47.446Z,8.27
2024-04-16T20:36:16.738Z,8.18
2024-04-16T20:38:43.423Z,8.13
2024-04-16T20:41:12.751Z,8.24
2024-04-16T20:43:39.733Z,8.07
2024-04-16T20:46:11.332Z,8.22
2024-04-16T20:48:38.281Z,8.21
2024-04-16T20:51:09.042Z,8.23
2024-04-16T20:53:36.604Z,8.10
2024-04-16T20:56:06.228Z,7.91
2024-04-16T20:58:33.176Z,7.98
2024-04-16T21:01:02.886Z,7.98
2024-04-16T21:03:29.686Z,7.81
2024-04-16T21:05:59.818Z,8.01
2024-04-16T21:08:26.493Z,7.95
2024-04-16T21:10:55.973Z,7.90
2024-04-16T21:13:22.712Z,7.93
2024-04-16T21:16:00.311Z,8.00
2024-04-16T21:18:27.130Z,7.99
2024-04-16T21:20:56.537Z,7.98
2024-04-16T21:23:23.348Z,7.95
2024-04-16T21:25:53.129Z,7.75
2024-04-16T21:28:20.041Z,7.80
2024-04-16T21:30:49.483Z,7.75
2024-04-16T21:33:16.447Z,7.82
2024-04-16T21:35:45.731Z,7.67
2024-04-16T21:38:12.429Z,7.72
2024-04-16T21:40:41.846Z,7.58
2024-04-16T21:43:08.547Z,7.65
2024-04-16T21:45:38.002Z,7.67
2024-04-16T21:48:04.856Z,7.79
2024-04-16T21:50:34.170Z,7.73
2024-04-16T21:53:01.011Z,7.64
2024-04-16T21:55:31.431Z,7.52
2024-04-16T21:58:00.062Z,7.51
2024-04-16T22:00:29.392Z,7.36
2024-04-16T22:02:58.268Z,7.39
2024-04-16T22:05:27.667Z,7.44
2024-04-16T22:07:59.036Z,7.44
2024-04-16T22:10:28.859Z,7.43
2024-04-16T22:12:55.900Z,7.43
2024-04-16T22:16:18.880Z,7.42
2024-04-16T22:19:42.060Z,7.38
2024-04-16T22:23:05.104Z,7.29
2024-04-16T22:25:34.388Z,7.35
2024-04-16T22:28:01.057Z,7.41
2024-04-16T22:30:30.357Z,7.39
2024-04-16T22:32:57.335Z,7.35
2024-04-16T22:35:26.701Z,7.28
2024-04-16T22:37:53.429Z,7.20
2024-04-16T22:40:22.721Z,7.21
2024-04-16T22:42:49.364Z,7.15
2024-04-16T22:45:18.757Z,7.18
2024-04-16T22:47:45.519Z,7.14
2024-04-16T22:50:14.920Z,7.20
2024-04-16T22:52:41.598Z,7.16
2024-04-16T22:55:10.907Z,7.14
2024-04-16T22:57:37.583Z,7.16
2024-04-16T23:00:07.771Z,7.07
2024-04-16T23:02:34.537Z,7.10
2024-04-16T23:05:03.996Z,7.07
2024-04-16T23:07:30.803Z,7.01
2024-04-16T23:10:00.117Z,6.95
2024-04-16T23:12:26.845Z,7.01
2024-04-16T23:14:56.160Z,7.05
2024-04-16T23:17:22.926Z,7.02
2024-04-16T23:19:52.460Z,7.03
2024-04-16T23:22:19.308Z,6.99
2024-04-16T23:24:51.675Z,6.98
2024-04-16T23:27:18.274Z,6.98
2024-04-16T23:29:47.576Z,6.95
2024-04-16T23:32:14.319Z,6.94
2024-04-16T23:34:43.687Z,6.88
2024-04-16T23:37:12.472Z,6.90
2024-04-16T23:39:44.549Z,6.83
2024-04-16T23:42:11.449Z,6.82
2024-04-16T23:44:40.791Z,6.79
2024-04-16T23:47:07.859Z,6.64
2024-04-16T23:49:37.278Z,6.55
2024-04-16T23:52:04.126Z,6.51
2024-04-16T23:54:33.445Z,6.45
2024-04-16T23:57:00.269Z,6.38
2024-04-16T23:59:29.550Z,6.35
